sensor_id;sensor_type;location;lat;lon;timestamp;P1;durP1;ratioP1;P2;durP2;ratioP2
20411;SDS011;10365;52.578;8.138;2023-02-03T00:01:29;39.22;;;20.10;;
20411;SDS011;10365;52.578;8.138;2023-02-03T00:03:54;38.67;;;19.88;;
20411;SDS011;10365;52.578;8.138;2023-02-03T00:06:19;34.75;;;18.60;;
20411;SDS011;10365;52.578;8.138;2023-02-03T00:08:45;38.88;;;20.08;;
20411;SDS011;10365;52.578;8.138;2023-02-03T00:11:10;34.92;;;18.83;;
20411;SDS011;10365;52.578;8.138;2023-02-03T00:13:36;42.10;;;19.90;;
20411;SDS011;10365;52.578;8.138;2023-02-03T00:16:01;36.25;;;18.58;;
20411;SDS011;10365;52.578;8.138;2023-02-03T00:18:27;33.03;;;19.17;;
20411;SDS011;10365;52.578;8.138;2023-02-03T00:20:52;37.90;;;19.67;;
20411;SDS011;10365;52.578;8.138;2023-02-03T00:23:17;30.40;;;17.73;;
20411;SDS011;10365;52.578;8.138;2023-02-03T00:25:43;37.28;;;17.52;;
20411;SDS011;10365;52.578;8.138;2023-02-03T00:28:08;36.03;;;18.42;;
20411;SDS011;10365;52.578;8.138;2023-02-03T00:30:34;36.47;;;16.45;;
20411;SDS011;10365;52.578;8.138;2023-02-03T00:33:00;32.28;;;16.65;;
20411;SDS011;10365;52.578;8.138;2023-02-03T00:35:26;31.70;;;16.98;;
20411;SDS011;10365;52.578;8.138;2023-02-03T00:37:52;29.38;;;16.38;;
20411;SDS011;10365;52.578;8.138;2023-02-03T00:40:18;30.85;;;17.58;;
20411;SDS011;10365;52.578;8.138;2023-02-03T00:42:43;29.55;;;16.67;;
20411;SDS011;10365;52.578;8.138;2023-02-03T00:45:09;33.20;;;15.93;;
20411;SDS011;10365;52.578;8.138;2023-02-03T00:47:34;25.48;;;15.82;;
20411;SDS011;10365;52.578;8.138;2023-02-03T00:50:00;29.38;;;15.82;;
20411;SDS011;10365;52.578;8.138;2023-02-03T00:52:25;31.63;;;14.38;;
20411;SDS011;10365;52.578;8.138;2023-02-03T00:54:50;27.88;;;15.15;;
20411;SDS011;10365;52.578;8.138;2023-02-03T00:57:16;29.80;;;14.82;;
20411;SDS011;10365;52.578;8.138;2023-02-03T00:59:41;26.38;;;15.73;;
20411;SDS011;10365;52.578;8.138;2023-02-03T01:02:07;28.33;;;15.48;;
20411;SDS011;10365;52.578;8.138;2023-02-03T01:04:33;35.97;;;14.73;;
20411;SDS011;10365;52.578;8.138;2023-02-03T01:06:58;25.58;;;14.10;;
20411;SDS011;10365;52.578;8.138;2023-02-03T01:09:24;23.00;;;14.60;;
20411;SDS011;10365;52.578;8.138;2023-02-03T01:11:52;28.63;;;14.13;;
20411;SDS011;10365;52.578;8.138;2023-02-03T01:14:18;26.08;;;13.30;;
20411;SDS011;10365;52.578;8.138;2023-02-03T01:16:43;27.25;;;12.75;;
20411;SDS011;10365;52.578;8.138;2023-02-03T01:19:09;23.30;;;11.75;;
20411;SDS011;10365;52.578;8.138;2023-02-03T01:21:34;25.27;;;11.73;;
20411;SDS011;10365;52.578;8.138;2023-02-03T01:24:00;29.38;;;12.15;;
20411;SDS011;10365;52.578;8.138;2023-02-03T01:26:26;29.80;;;11.82;;
20411;SDS011;10365;52.578;8.138;2023-02-03T01:28:56;29.02;;;11.52;;
20411;SDS011;10365;52.578;8.138;2023-02-03T01:31:23;15.80;;;9.82;;
20411;SDS011;10365;52.578;8.138;2023-02-03T01:33:50;19.23;;;10.05;;
20411;SDS011;10365;52.578;8.138;2023-02-03T01:36:16;26.08;;;9.88;;
20411;SDS011;10365;52.578;8.138;2023-02-03T01:38:41;19.45;;;9.00;;
20411;SDS011;10365;52.578;8.138;2023-02-03T01:41:08;15.90;;;8.90;;
20411;SDS011;10365;52.578;8.138;2023-02-03T01:43:36;22.17;;;9.23;;
20411;SDS011;10365;52.578;8.138;2023-02-03T01:46:04;18.63;;;8.27;;
20411;SDS011;10365;52.578;8.138;2023-02-03T01:48:31;21.30;;;8.52;;
20411;SDS011;10365;52.578;8.138;2023-02-03T01:51:01;18.92;;;8.35;;
20411;SDS011;10365;52.578;8.138;2023-02-03T01:53:27;21.25;;;8.25;;
20411;SDS011;10365;52.578;8.138;2023-02-03T01:55:53;21.25;;;8.77;;
20411;SDS011;10365;52.578;8.138;2023-02-03T01:58:22;13.68;;;7.70;;
20411;SDS011;10365;52.578;8.138;2023-02-03T02:00:49;15.50;;;8.15;;
20411;SDS011;10365;52.578;8.138;2023-02-03T02:03:17;14.80;;;7.50;;
20411;SDS011;10365;52.578;8.138;2023-02-03T02:05:56;17.48;;;8.85;;
20411;SDS011;10365;52.578;8.138;2023-02-03T02:08:24;18.90;;;8.40;;
20411;SDS011;10365;52.578;8.138;2023-02-03T02:10:50;18.00;;;8.60;;
20411;SDS011;10365;52.578;8.138;2023-02-03T02:13:16;16.13;;;8.27;;
20411;SDS011;10365;52.578;8.138;2023-02-03T02:26:23;21.25;;;8.48;;
20411;SDS011;10365;52.578;8.138;2023-02-03T02:28:58;15.68;;;8.10;;
20411;SDS011;10365;52.578;8.138;2023-02-03T02:33:58;14.20;;;8.75;;
20411;SDS011;10365;52.578;8.138;2023-02-03T02:36:37;16.48;;;8.32;;
20411;SDS011;10365;52.578;8.138;2023-02-03T02:39:11;20.30;;;8.07;;
20411;SDS011;10365;52.578;8.138;2023-02-03T02:41:42;16.40;;;7.40;;
20411;SDS011;10365;52.578;8.138;2023-02-03T02:46:38;17.90;;;8.00;;
20411;SDS011;10365;52.578;8.138;2023-02-03T02:49:12;17.25;;;8.00;;
20411;SDS011;10365;52.578;8.138;2023-02-03T02:51:39;16.70;;;7.70;;
20411;SDS011;10365;52.578;8.138;2023-02-03T02:54:06;13.70;;;6.95;;
20411;SDS011;10365;52.578;8.138;2023-02-03T02:56:35;14.90;;;7.50;;
20411;SDS011;10365;52.578;8.138;2023-02-03T02:59:01;15.70;;;7.50;;
20411;SDS011;10365;52.578;8.138;2023-02-03T03:01:28;20.05;;;7.47;;
20411;SDS011;10365;52.578;8.138;2023-02-03T03:03:54;13.00;;;7.47;;
20411;SDS011;10365;52.578;8.138;2023-02-03T03:06:32;17.25;;;6.82;;
20411;SDS011;10365;52.578;8.138;2023-02-03T03:09:05;14.57;;;6.13;;
20411;SDS011;10365;52.578;8.138;2023-02-03T03:11:34;14.73;;;6.90;;
20411;SDS011;10365;52.578;8.138;2023-02-03T03:14:02;14.15;;;6.50;;
20411;SDS011;10365;52.578;8.138;2023-02-03T03:16:31;19.85;;;6.75;;
20411;SDS011;10365;52.578;8.138;2023-02-03T03:18:59;17.02;;;6.80;;
20411;SDS011;10365;52.578;8.138;2023-02-03T03:21:31;11.80;;;5.85;;
20411;SDS011;10365;52.578;8.138;2023-02-03T03:24:00;14.93;;;6.93;;
20411;SDS011;10365;52.578;8.138;2023-02-03T03:26:46;14.50;;;6.88;;
20411;SDS011;10365;52.578;8.138;2023-02-03T03:29:21;15.27;;;6.40;;
20411;SDS011;10365;52.578;8.138;2023-02-03T03:31:48;12.30;;;6.18;;
20411;SDS011;10365;52.578;8.138;2023-02-03T03:34:14;13.07;;;7.00;;
20411;SDS011;10365;52.578;8.138;2023-02-03T03:41:40;19.02;;;6.63;;
20411;SDS011;10365;52.578;8.138;2023-02-03T03:44:07;11.63;;;7.18;;
20411;SDS011;10365;52.578;8.138;2023-02-03T03:46:35;13.85;;;6.85;;
20411;SDS011;10365;52.578;8.138;2023-02-03T03:49:03;13.65;;;5.90;;
20411;SDS011;10365;52.578;8.138;2023-02-03T03:51:43;17.70;;;7.03;;
20411;SDS011;10365;52.578;8.138;2023-02-03T03:54:12;16.48;;;7.63;;
20411;SDS011;10365;52.578;8.138;2023-02-03T03:56:40;15.82;;;6.68;;
20411;SDS011;10365;52.578;8.138;2023-02-03T03:59:07;14.95;;;6.18;;
20411;SDS011;10365;52.578;8.138;2023-02-03T04:01:33;13.98;;;6.35;;
20411;SDS011;10365;52.578;8.138;2023-02-03T04:03:59;17.58;;;6.55;;
20411;SDS011;10365;52.578;8.138;2023-02-03T04:06:26;13.60;;;5.70;;
20411;SDS011;10365;52.578;8.138;2023-02-03T04:08:51;17.95;;;6.22;;
20411;SDS011;10365;52.578;8.138;2023-02-03T04:11:17;12.55;;;5.75;;
20411;SDS011;10365;52.578;8.138;2023-02-03T04:14:02;19.60;;;6.20;;
20411;SDS011;10365;52.578;8.138;2023-02-03T04:16:27;14.30;;;5.38;;
20411;SDS011;10365;52.578;8.138;2023-02-03T04:18:53;15.48;;;6.00;;
20411;SDS011;10365;52.578;8.138;2023-02-03T04:21:18;14.02;;;5.55;;
20411;SDS011;10365;52.578;8.138;2023-02-03T04:23:43;14.90;;;6.57;;
20411;SDS011;10365;52.578;8.138;2023-02-03T04:26:09;19.67;;;6.57;;
20411;SDS011;10365;52.578;8.138;2023-02-03T04:28:34;19.02;;;5.70;;
20411;SDS011;10365;52.578;8.138;2023-02-03T04:30:59;18.45;;;5.75;;
20411;SDS011;10365;52.578;8.138;2023-02-03T04:33:25;14.35;;;5.72;;
20411;SDS011;10365;52.578;8.138;2023-02-03T04:35:50;12.40;;;5.18;;
20411;SDS011;10365;52.578;8.138;2023-02-03T04:38:15;14.68;;;5.35;;
20411;SDS011;10365;52.578;8.138;2023-02-03T04:40:41;17.35;;;5.80;;
20411;SDS011;10365;52.578;8.138;2023-02-03T04:43:06;10.60;;;4.97;;
20411;SDS011;10365;52.578;8.138;2023-02-03T04:45:32;16.40;;;5.10;;
20411;SDS011;10365;52.578;8.138;2023-02-03T04:47:57;17.35;;;5.45;;
20411;SDS011;10365;52.578;8.138;2023-02-03T04:50:22;18.17;;;5.22;;
20411;SDS011;10365;52.578;8.138;2023-02-03T04:52:47;8.90;;;4.65;;
20411;SDS011;10365;52.578;8.138;2023-02-03T04:55:13;14.30;;;4.90;;
20411;SDS011;10365;52.578;8.138;2023-02-03T04:57:38;16.65;;;5.28;;
20411;SDS011;10365;52.578;8.138;2023-02-03T05:00:04;13.73;;;5.13;;
20411;SDS011;10365;52.578;8.138;2023-02-03T05:02:29;15.13;;;4.75;;
20411;SDS011;10365;52.578;8.138;2023-02-03T05:04:54;11.57;;;4.75;;
20411;SDS011;10365;52.578;8.138;2023-02-03T05:07:20;11.88;;;3.72;;
20411;SDS011;10365;52.578;8.138;2023-02-03T05:09:45;11.15;;;4.65;;
20411;SDS011;10365;52.578;8.138;2023-02-03T05:12:10;11.73;;;3.88;;
20411;SDS011;10365;52.578;8.138;2023-02-03T05:14:36;16.33;;;4.72;;
20411;SDS011;10365;52.578;8.138;2023-02-03T05:17:01;19.00;;;4.45;;
20411;SDS011;10365;52.578;8.138;2023-02-03T05:19:26;12.75;;;4.43;;
20411;SDS011;10365;52.578;8.138;2023-02-03T05:21:52;12.80;;;3.92;;
20411;SDS011;10365;52.578;8.138;2023-02-03T05:24:17;16.52;;;4.22;;
20411;SDS011;10365;52.578;8.138;2023-02-03T05:26:42;14.68;;;4.10;;
20411;SDS011;10365;52.578;8.138;2023-02-03T05:29:08;13.10;;;3.58;;
20411;SDS011;10365;52.578;8.138;2023-02-03T05:31:35;10.10;;;3.75;;
20411;SDS011;10365;52.578;8.138;2023-02-03T05:34:01;8.50;;;3.40;;
20411;SDS011;10365;52.578;8.138;2023-02-03T05:36:26;13.48;;;3.67;;
20411;SDS011;10365;52.578;8.138;2023-02-03T05:38:51;8.30;;;3.58;;
20411;SDS011;10365;52.578;8.138;2023-02-03T05:41:17;11.30;;;3.50;;
20411;SDS011;10365;52.578;8.138;2023-02-03T05:44:01;9.23;;;3.20;;
20411;SDS011;10365;52.578;8.138;2023-02-03T05:46:26;11.48;;;3.42;;
20411;SDS011;10365;52.578;8.138;2023-02-03T05:48:51;10.48;;;3.92;;
20411;SDS011;10365;52.578;8.138;2023-02-03T05:51:17;9.27;;;2.88;;
20411;SDS011;10365;52.578;8.138;2023-02-03T05:53:42;11.15;;;2.88;;
20411;SDS011;10365;52.578;8.138;2023-02-03T05:56:08;13.63;;;3.42;;
20411;SDS011;10365;52.578;8.138;2023-02-03T05:58:33;13.07;;;3.47;;
20411;SDS011;10365;52.578;8.138;2023-02-03T06:00:59;7.53;;;2.83;;
20411;SDS011;10365;52.578;8.138;2023-02-03T06:03:24;11.00;;;3.60;;
20411;SDS011;10365;52.578;8.138;2023-02-03T06:05:50;9.95;;;3.13;;
20411;SDS011;10365;52.578;8.138;2023-02-03T06:08:15;10.07;;;3.10;;
20411;SDS011;10365;52.578;8.138;2023-02-03T06:10:40;9.55;;;3.35;;
20411;SDS011;10365;52.578;8.138;2023-02-03T06:13:07;10.38;;;3.40;;
20411;SDS011;10365;52.578;8.138;2023-02-03T06:15:32;7.60;;;2.60;;
20411;SDS011;10365;52.578;8.138;2023-02-03T06:17:57;9.77;;;3.83;;
20411;SDS011;10365;52.578;8.138;2023-02-03T06:20:22;10.30;;;2.85;;
20411;SDS011;10365;52.578;8.138;2023-02-03T06:22:48;10.27;;;3.45;;
20411;SDS011;10365;52.578;8.138;2023-02-03T06:25:13;11.20;;;3.83;;
20411;SDS011;10365;52.578;8.138;2023-02-03T06:27:39;13.15;;;3.95;;
20411;SDS011;10365;52.578;8.138;2023-02-03T06:30:05;9.05;;;3.22;;
20411;SDS011;10365;52.578;8.138;2023-02-03T06:32:30;14.48;;;3.28;;
20411;SDS011;10365;52.578;8.138;2023-02-03T06:34:56;11.05;;;3.38;;
20411;SDS011;10365;52.578;8.138;2023-02-03T06:37:21;7.68;;;2.83;;
20411;SDS011;10365;52.578;8.138;2023-02-03T06:39:47;14.93;;;3.70;;
20411;SDS011;10365;52.578;8.138;2023-02-03T06:42:12;7.57;;;3.40;;
20411;SDS011;10365;52.578;8.138;2023-02-03T06:44:39;6.72;;;2.78;;
20411;SDS011;10365;52.578;8.138;2023-02-03T06:47:04;9.32;;;3.08;;
20411;SDS011;10365;52.578;8.138;2023-02-03T06:49:30;7.32;;;2.85;;
20411;SDS011;10365;52.578;8.138;2023-02-03T06:51:55;9.48;;;3.25;;
20411;SDS011;10365;52.578;8.138;2023-02-03T06:54:20;7.20;;;2.70;;
20411;SDS011;10365;52.578;8.138;2023-02-03T06:56:46;8.30;;;2.70;;
20411;SDS011;10365;52.578;8.138;2023-02-03T06:59:11;8.30;;;3.08;;
20411;SDS011;10365;52.578;8.138;2023-02-03T07:01:37;8.60;;;2.85;;
20411;SDS011;10365;52.578;8.138;2023-02-03T07:04:02;8.27;;;2.95;;
20411;SDS011;10365;52.578;8.138;2023-02-03T07:06:28;7.22;;;3.17;;
20411;SDS011;10365;52.578;8.138;2023-02-03T07:08:57;11.18;;;3.05;;
20411;SDS011;10365;52.578;8.138;2023-02-03T07:11:23;9.68;;;3.15;;
20411;SDS011;10365;52.578;8.138;2023-02-03T07:13:48;7.78;;;3.33;;
20411;SDS011;10365;52.578;8.138;2023-02-03T07:16:14;12.73;;;3.10;;
20411;SDS011;10365;52.578;8.138;2023-02-03T07:18:39;10.02;;;3.20;;
20411;SDS011;10365;52.578;8.138;2023-02-03T07:21:05;10.00;;;3.03;;
20411;SDS011;10365;52.578;8.138;2023-02-03T07:23:30;9.55;;;3.47;;
20411;SDS011;10365;52.578;8.138;2023-02-03T07:26:03;8.90;;;2.85;;
20411;SDS011;10365;52.578;8.138;2023-02-03T07:28:29;9.07;;;3.00;;
20411;SDS011;10365;52.578;8.138;2023-02-03T07:30:54;11.27;;;3.65;;
20411;SDS011;10365;52.578;8.138;2023-02-03T07:33:20;8.10;;;3.88;;
20411;SDS011;10365;52.578;8.138;2023-02-03T07:35:51;7.82;;;2.97;;
20411;SDS011;10365;52.578;8.138;2023-02-03T07:38:17;10.50;;;3.10;;
20411;SDS011;10365;52.578;8.138;2023-02-03T07:40:42;11.65;;;3.40;;
20411;SDS011;10365;52.578;8.138;2023-02-03T07:43:08;13.07;;;3.40;;
20411;SDS011;10365;52.578;8.138;2023-02-03T07:45:33;8.52;;;3.03;;
20411;SDS011;10365;52.578;8.138;2023-02-03T07:47:58;16.90;;;3.20;;
20411;SDS011;10365;52.578;8.138;2023-02-03T07:50:24;14.27;;;2.85;;
20411;SDS011;10365;52.578;8.138;2023-02-03T07:52:49;10.80;;;3.13;;
20411;SDS011;10365;52.578;8.138;2023-02-03T07:55:15;5.55;;;2.53;;
20411;SDS011;10365;52.578;8.138;2023-02-03T07:57:40;10.63;;;2.72;;
20411;SDS011;10365;52.578;8.138;2023-02-03T08:00:08;11.70;;;2.47;;
20411;SDS011;10365;52.578;8.138;2023-02-03T08:02:42;10.55;;;2.80;;
20411;SDS011;10365;52.578;8.138;2023-02-03T08:05:08;9.50;;;2.20;;
20411;SDS011;10365;52.578;8.138;2023-02-03T08:07:33;10.10;;;2.47;;
20411;SDS011;10365;52.578;8.138;2023-02-03T08:09:59;10.13;;;2.80;;
20411;SDS011;10365;52.578;8.138;2023-02-03T08:12:24;10.43;;;3.67;;
20411;SDS011;10365;52.578;8.138;2023-02-03T08:14:50;8.52;;;2.53;;
20411;SDS011;10365;52.578;8.138;2023-02-03T08:17:15;13.65;;;2.45;;
20411;SDS011;10365;52.578;8.138;2023-02-03T08:19:40;19.95;;;2.97;;
20411;SDS011;10365;52.578;8.138;2023-02-03T08:22:06;11.85;;;3.45;;
20411;SDS011;10365;52.578;8.138;2023-02-03T08:24:31;9.98;;;2.50;;
20411;SDS011;10365;52.578;8.138;2023-02-03T08:26:56;7.40;;;2.28;;
20411;SDS011;10365;52.578;8.138;2023-02-03T08:29:22;14.07;;;2.45;;
20411;SDS011;10365;52.578;8.138;2023-02-03T08:31:47;9.75;;;2.70;;
20411;SDS011;10365;52.578;8.138;2023-02-03T08:34:12;11.63;;;2.78;;
20411;SDS011;10365;52.578;8.138;2023-02-03T08:36:38;13.90;;;2.63;;
20411;SDS011;10365;52.578;8.138;2023-02-03T08:39:05;6.63;;;2.15;;
20411;SDS011;10365;52.578;8.138;2023-02-03T08:41:30;8.68;;;2.70;;
20411;SDS011;10365;52.578;8.138;2023-02-03T08:43:58;8.27;;;2.15;;
20411;SDS011;10365;52.578;8.138;2023-02-03T08:46:23;7.82;;;1.98;;
20411;SDS011;10365;52.578;8.138;2023-02-03T08:48:48;4.85;;;1.83;;
20411;SDS011;10365;52.578;8.138;2023-02-03T08:51:14;5.80;;;2.22;;
20411;SDS011;10365;52.578;8.138;2023-02-03T08:53:40;10.23;;;1.92;;
20411;SDS011;10365;52.578;8.138;2023-02-03T08:56:06;4.30;;;1.92;;
20411;SDS011;10365;52.578;8.138;2023-02-03T08:58:32;4.85;;;1.85;;
20411;SDS011;10365;52.578;8.138;2023-02-03T09:01:04;11.13;;;2.40;;
20411;SDS011;10365;52.578;8.138;2023-02-03T09:03:30;10.60;;;2.20;;
20411;SDS011;10365;52.578;8.138;2023-02-03T09:05:55;6.15;;;2.30;;
20411;SDS011;10365;52.578;8.138;2023-02-03T09:08:21;8.93;;;2.17;;
20411;SDS011;10365;52.578;8.138;2023-02-03T09:10:46;9.13;;;1.88;;
20411;SDS011;10365;52.578;8.138;2023-02-03T09:13:12;7.72;;;1.90;;
20411;SDS011;10365;52.578;8.138;2023-02-03T09:15:37;7.32;;;1.80;;
20411;SDS011;10365;52.578;8.138;2023-02-03T09:18:02;9.93;;;2.95;;
20411;SDS011;10365;52.578;8.138;2023-02-03T09:20:28;8.68;;;2.15;;
20411;SDS011;10365;52.578;8.138;2023-02-03T09:22:53;6.13;;;1.90;;
20411;SDS011;10365;52.578;8.138;2023-02-03T09:25:19;7.30;;;2.05;;
20411;SDS011;10365;52.578;8.138;2023-02-03T09:27:44;8.30;;;2.13;;
20411;SDS011;10365;52.578;8.138;2023-02-03T09:30:10;6.22;;;2.10;;
20411;SDS011;10365;52.578;8.138;2023-02-03T09:32:35;3.78;;;1.90;;
20411;SDS011;10365;52.578;8.138;2023-02-03T09:35:01;8.65;;;2.47;;
20411;SDS011;10365;52.578;8.138;2023-02-03T09:37:28;6.32;;;2.28;;
20411;SDS011;10365;52.578;8.138;2023-02-03T09:39:53;4.20;;;2.25;;
20411;SDS011;10365;52.578;8.138;2023-02-03T09:44:55;9.40;;;2.65;;
20411;SDS011;10365;52.578;8.138;2023-02-03T09:47:26;5.22;;;2.30;;
20411;SDS011;10365;52.578;8.138;2023-02-03T09:49:54;7.78;;;2.10;;
20411;SDS011;10365;52.578;8.138;2023-02-03T09:52:30;10.32;;;2.10;;
20411;SDS011;10365;52.578;8.138;2023-02-03T09:57:48;8.43;;;2.35;;
20411;SDS011;10365;52.578;8.138;2023-02-03T10:00:18;13.07;;;2.30;;
20411;SDS011;10365;52.578;8.138;2023-02-03T10:05:18;11.05;;;2.55;;
20411;SDS011;10365;52.578;8.138;2023-02-03T10:08:06;13.52;;;2.83;;
20411;SDS011;10365;52.578;8.138;2023-02-03T10:16:03;15.13;;;2.97;;
20411;SDS011;10365;52.578;8.138;2023-02-03T10:18:38;18.38;;;2.72;;
20411;SDS011;10365;52.578;8.138;2023-02-03T10:21:11;16.95;;;3.10;;
20411;SDS011;10365;52.578;8.138;2023-02-03T10:23:38;21.73;;;3.38;;
20411;SDS011;10365;52.578;8.138;2023-02-03T10:26:04;17.40;;;3.67;;
20411;SDS011;10365;52.578;8.138;2023-02-03T10:28:33;17.58;;;2.83;;
20411;SDS011;10365;52.578;8.138;2023-02-03T10:31:02;21.67;;;3.30;;
20411;SDS011;10365;52.578;8.138;2023-02-03T10:33:32;18.88;;;3.67;;
20411;SDS011;10365;52.578;8.138;2023-02-03T10:40:57;23.60;;;4.35;;
20411;SDS011;10365;52.578;8.138;2023-02-03T10:43:23;19.65;;;3.42;;
20411;SDS011;10365;52.578;8.138;2023-02-03T10:46:07;24.60;;;3.58;;
20411;SDS011;10365;52.578;8.138;2023-02-03T10:48:32;24.35;;;4.03;;
20411;SDS011;10365;52.578;8.138;2023-02-03T10:50:57;26.00;;;3.85;;
20411;SDS011;10365;52.578;8.138;2023-02-03T10:53:24;28.42;;;4.03;;
20411;SDS011;10365;52.578;8.138;2023-02-03T10:58:28;18.48;;;4.05;;
20411;SDS011;10365;52.578;8.138;2023-02-03T11:01:11;25.63;;;2.75;;
20411;SDS011;10365;52.578;8.138;2023-02-03T11:03:37;24.75;;;3.88;;
20411;SDS011;10365;52.578;8.138;2023-02-03T11:08:29;18.20;;;3.50;;
20411;SDS011;10365;52.578;8.138;2023-02-03T11:11:00;18.85;;;3.33;;
20411;SDS011;10365;52.578;8.138;2023-02-03T11:13:25;26.27;;;4.03;;
20411;SDS011;10365;52.578;8.138;2023-02-03T11:20:59;25.08;;;3.30;;
20411;SDS011;10365;52.578;8.138;2023-02-03T11:23:30;22.75;;;3.47;;
20411;SDS011;10365;52.578;8.138;2023-02-03T11:25:55;22.75;;;3.67;;
20411;SDS011;10365;52.578;8.138;2023-02-03T11:28:21;22.73;;;3.92;;
20411;SDS011;10365;52.578;8.138;2023-02-03T11:30:46;22.35;;;3.75;;
20411;SDS011;10365;52.578;8.138;2023-02-03T11:33:19;21.13;;;3.67;;
20411;SDS011;10365;52.578;8.138;2023-02-03T11:35:57;19.48;;;3.00;;
20411;SDS011;10365;52.578;8.138;2023-02-03T11:38:27;24.88;;;3.90;;
20411;SDS011;10365;52.578;8.138;2023-02-03T11:40:57;35.45;;;4.10;;
20411;SDS011;10365;52.578;8.138;2023-02-03T11:43:23;26.42;;;4.10;;
20411;SDS011;10365;52.578;8.138;2023-02-03T11:45:51;22.45;;;3.83;;
20411;SDS011;10365;52.578;8.138;2023-02-03T12:36:39;23.00;;;5.03;;
20411;SDS011;10365;52.578;8.138;2023-02-03T12:41:53;29.33;;;3.75;;
20411;SDS011;10365;52.578;8.138;2023-02-03T12:44:23;26.85;;;4.15;;
20411;SDS011;10365;52.578;8.138;2023-02-03T12:49:27;20.05;;;3.05;;
20411;SDS011;10365;52.578;8.138;2023-02-03T12:51:56;24.65;;;4.28;;
20411;SDS011;10365;52.578;8.138;2023-02-03T12:54:41;22.77;;;3.47;;
20411;SDS011;10365;52.578;8.138;2023-02-03T12:57:16;21.90;;;4.90;;
20411;SDS011;10365;52.578;8.138;2023-02-03T12:59:43;19.00;;;3.90;;
20411;SDS011;10365;52.578;8.138;2023-02-03T13:02:23;24.63;;;3.70;;
20411;SDS011;10365;52.578;8.138;2023-02-03T13:07:21;21.67;;;3.70;;
20411;SDS011;10365;52.578;8.138;2023-02-03T13:10:32;27.88;;;3.65;;
20411;SDS011;10365;52.578;8.138;2023-02-03T13:12:42;23.52;;;3.25;;
20411;SDS011;10365;52.578;8.138;2023-02-03T13:17:46;20.70;;;3.85;;
20411;SDS011;10365;52.578;8.138;2023-02-03T13:20:19;24.10;;;3.75;;
20411;SDS011;10365;52.578;8.138;2023-02-03T13:22:45;24.08;;;3.83;;
20411;SDS011;10365;52.578;8.138;2023-02-03T13:25:30;20.27;;;3.47;;
20411;SDS011;10365;52.578;8.138;2023-02-03T13:28:15;33.30;;;4.47;;
20411;SDS011;10365;52.578;8.138;2023-02-03T13:36:58;28.17;;;4.07;;
20411;SDS011;10365;52.578;8.138;2023-02-03T13:41:42;28.77;;;4.70;;
20411;SDS011;10365;52.578;8.138;2023-02-03T13:44:12;24.67;;;3.58;;
20411;SDS011;10365;52.578;8.138;2023-02-03T13:46:39;24.33;;;3.75;;
20411;SDS011;10365;52.578;8.138;2023-02-03T13:49:05;18.33;;;2.97;;
20411;SDS011;10365;52.578;8.138;2023-02-03T13:51:32;20.42;;;2.97;;
20411;SDS011;10365;52.578;8.138;2023-02-03T13:54:03;21.90;;;3.15;;
20411;SDS011;10365;52.578;8.138;2023-02-03T13:56:30;18.70;;;3.35;;
20411;SDS011;10365;52.578;8.138;2023-02-03T14:03:58;17.88;;;3.75;;
20411;SDS011;10365;52.578;8.138;2023-02-03T14:11:49;21.52;;;3.72;;
20411;SDS011;10365;52.578;8.138;2023-02-03T14:16:44;21.60;;;2.95;;
20411;SDS011;10365;52.578;8.138;2023-02-03T14:19:12;12.95;;;2.58;;
20411;SDS011;10365;52.578;8.138;2023-02-03T14:21:58;22.23;;;2.83;;
20411;SDS011;10365;52.578;8.138;2023-02-03T14:24:38;16.45;;;3.50;;
20411;SDS011;10365;52.578;8.138;2023-02-03T14:27:07;18.38;;;2.85;;
20411;SDS011;10365;52.578;8.138;2023-02-03T14:29:40;21.00;;;2.60;;
20411;SDS011;10365;52.578;8.138;2023-02-03T14:32:09;17.40;;;3.17;;
20411;SDS011;10365;52.578;8.138;2023-02-03T14:34:39;14.23;;;2.65;;
20411;SDS011;10365;52.578;8.138;2023-02-03T14:37:12;15.55;;;2.85;;
20411;SDS011;10365;52.578;8.138;2023-02-03T14:39:42;17.55;;;2.95;;
20411;SDS011;10365;52.578;8.138;2023-02-03T14:42:22;18.70;;;2.95;;
20411;SDS011;10365;52.578;8.138;2023-02-03T14:50:37;19.13;;;2.95;;
20411;SDS011;10365;52.578;8.138;2023-02-03T14:53:14;12.88;;;2.58;;
20411;SDS011;10365;52.578;8.138;2023-02-03T14:55:51;25.30;;;3.30;;
20411;SDS011;10365;52.578;8.138;2023-02-03T14:59:02;21.52;;;2.90;;
20411;SDS011;10365;52.578;8.138;2023-02-03T15:01:22;20.48;;;2.83;;
20411;SDS011;10365;52.578;8.138;2023-02-03T15:04:07;16.90;;;3.08;;
20411;SDS011;10365;52.578;8.138;2023-02-03T15:06:42;23.45;;;3.40;;
20411;SDS011;10365;52.578;8.138;2023-02-03T15:11:43;16.40;;;3.05;;
20411;SDS011;10365;52.578;8.138;2023-02-03T15:14:25;23.75;;;3.45;;
20411;SDS011;10365;52.578;8.138;2023-02-03T15:17:01;33.47;;;3.80;;
20411;SDS011;10365;52.578;8.138;2023-02-03T15:19:32;25.20;;;2.97;;
20411;SDS011;10365;52.578;8.138;2023-02-03T15:21:58;23.40;;;3.47;;
20411;SDS011;10365;52.578;8.138;2023-02-03T15:24:23;21.77;;;3.63;;
20411;SDS011;10365;52.578;8.138;2023-02-03T15:26:53;24.27;;;3.53;;
20411;SDS011;10365;52.578;8.138;2023-02-03T15:29:29;21.95;;;3.50;;
20411;SDS011;10365;52.578;8.138;2023-02-03T15:32:00;17.38;;;3.80;;
20411;SDS011;10365;52.578;8.138;2023-02-03T15:34:32;24.52;;;3.22;;
20411;SDS011;10365;52.578;8.138;2023-02-03T15:37:00;25.27;;;3.25;;
20411;SDS011;10365;52.578;8.138;2023-02-03T15:41:52;18.38;;;4.03;;
20411;SDS011;10365;52.578;8.138;2023-02-03T15:44:40;23.02;;;3.63;;
20411;SDS011;10365;52.578;8.138;2023-02-03T15:47:04;32.08;;;4.18;;
20411;SDS011;10365;52.578;8.138;2023-02-03T15:49:40;21.77;;;3.17;;
20411;SDS011;10365;52.578;8.138;2023-02-03T15:52:13;18.15;;;3.05;;
20411;SDS011;10365;52.578;8.138;2023-02-03T15:54:41;22.02;;;3.22;;
20411;SDS011;10365;52.578;8.138;2023-02-03T15:57:13;28.77;;;3.72;;
20411;SDS011;10365;52.578;8.138;2023-02-03T15:59:40;13.30;;;3.15;;
20411;SDS011;10365;52.578;8.138;2023-02-03T16:04:38;23.95;;;3.45;;
20411;SDS011;10365;52.578;8.138;2023-02-03T16:07:04;21.83;;;3.45;;
20411;SDS011;10365;52.578;8.138;2023-02-03T16:12:10;29.83;;;4.25;;
20411;SDS011;10365;52.578;8.138;2023-02-03T16:14:38;24.17;;;3.33;;
20411;SDS011;10365;52.578;8.138;2023-02-03T16:17:03;29.33;;;3.15;;
20411;SDS011;10365;52.578;8.138;2023-02-03T16:19:29;26.55;;;3.08;;
20411;SDS011;10365;52.578;8.138;2023-02-03T16:21:58;17.83;;;3.10;;
20411;SDS011;10365;52.578;8.138;2023-02-03T16:29:46;17.85;;;3.13;;
20411;SDS011;10365;52.578;8.138;2023-02-03T16:32:30;16.55;;;2.78;;
20411;SDS011;10365;52.578;8.138;2023-02-03T16:35:13;18.13;;;2.90;;
20411;SDS011;10365;52.578;8.138;2023-02-03T16:38:10;16.80;;;2.47;;
20411;SDS011;10365;52.578;8.138;2023-02-03T16:40:56;25.98;;;2.88;;
20411;SDS011;10365;52.578;8.138;2023-02-03T16:43:41;18.83;;;2.95;;
20411;SDS011;10365;52.578;8.138;2023-02-03T16:46:24;17.35;;;2.38;;
20411;SDS011;10365;52.578;8.138;2023-02-03T16:49:09;23.75;;;3.80;;
20411;SDS011;10365;52.578;8.138;2023-02-03T16:51:52;18.58;;;3.38;;
20411;SDS011;10365;52.578;8.138;2023-02-03T16:54:18;22.23;;;2.60;;
20411;SDS011;10365;52.578;8.138;2023-02-03T16:56:43;27.45;;;3.63;;
20411;SDS011;10365;52.578;8.138;2023-02-03T16:59:09;13.85;;;2.90;;
20411;SDS011;10365;52.578;8.138;2023-02-03T17:01:35;19.35;;;3.58;;
20411;SDS011;10365;52.578;8.138;2023-02-03T17:04:01;15.52;;;2.45;;
20411;SDS011;10365;52.578;8.138;2023-02-03T17:06:27;25.73;;;3.42;;
20411;SDS011;10365;52.578;8.138;2023-02-03T17:08:52;22.13;;;3.20;;
20411;SDS011;10365;52.578;8.138;2023-02-03T17:11:18;19.65;;;2.67;;
20411;SDS011;10365;52.578;8.138;2023-02-03T17:13:44;16.55;;;3.10;;